Time;durP1;ratioP1;P1;durP2;ratioP2;P2;SDS_P1;SDS_P2;PMS_P1;PMS_P2;Temp;Humidity;BMP_temperature;BMP_pressure;BME280_temperature;BME280_humidity;BME280_pressure;Samples;Min_cycle;Max_cycle;Signal;HPM_P1;HPM_P2
2023/08/31 00:01:14;;;;;;;;;;;;;;;;;;5025597;28;20007;-61
2023/08/31 00:03:40;;;;;;;;;;;;;;;;;;5044781;28;19925;-61
2023/08/31 00:06:07;;;;;;;;;;;;;;;;;;5058018;28;19928;-62
2023/08/31 00:08:33;;;;;;;;;;;;;;;;;;5035255;28;19935;-62
2023/08/31 00:11:00;;;;;;;;;;;;;;;;;;5060841;28;19928;-62
2023/08/31 00:13:26;;;;;;;;;;;;;;;;;;5056969;28;20035;-61
2023/08/31 00:15:52;;;;;;;;;;;;;;;;;;5057475;28;19924;-62
2023/08/31 00:18:18;;;;;;;;;;;;;;;;;;5030912;28;19932;-62
2023/08/31 00:20:46;;;;;;;;;;;;;;;;;;5050168;28;19924;-61
2023/08/31 00:23:12;;;;;;;;;;;;;;;;;;5035924;28;19921;-62
2023/08/31 00:25:38;;;;;;;;;;;;;;;;;;5051074;28;20476;-62
2023/08/31 00:28:04;;;;;;;;;;;;;;;;;;5038411;28;19924;-61
2023/08/31 00:30:31;;;;;;;;;;;;;;;;;;5045242;28;20020;-62
2023/08/31 00:33:00;;;;;;;;;;;;;;;;;;5049998;28;20631;-62
2023/08/31 00:35:27;;;;;;;;;;;;;;;;;;5054326;28;19920;-62
2023/08/31 00:37:55;;;;;;;;;;;;;;;;;;5055381;28;20370;-61
2023/08/31 00:40:21;;;;;;;;;;;;;;;;;;5014852;28;19939;-62
2023/08/31 00:42:47;;;;;;;;;;;;;;;;;;5051842;28;20007;-62
2023/08/31 00:45:13;;;;;;;;;;;;;;;;;;5058010;28;19931;-62
2023/08/31 00:47:39;;;;;;;;;;;;;;;;;;5049955;28;19925;-61
2023/08/31 00:50:05;;;;;;;;;;;;;;;;;;5056479;28;19933;-62
2023/08/31 00:52:30;;;;;;;;;;;;;;;;;;5050183;28;20699;-61
2023/08/31 00:54:56;;;;;;;;;;;;;;;;;;5055033;28;19925;-62
2023/08/31 00:57:22;;;;;;;;;;;;;;;;;;5042862;28;19970;-62
2023/08/31 00:59:48;;;;;;;;;;;;;;;;;;5034338;28;19928;-61
2023/08/31 01:02:15;;;;;;;;;;;;;;;;;;5015362;28;19920;-62
2023/08/31 01:04:41;;;;;;;;;;;;;;;;;;5033173;28;19921;-62
2023/08/31 01:07:08;;;;;;;;;;;;;;;;;;5054259;28;20020;-62
2023/08/31 01:09:36;;;;;;;;;;;;;;;;;;5041968;28;20011;-61
2023/08/31 01:12:02;;;;;;;;;;;;;;;;;;5051878;28;19929;-62
2023/08/31 01:14:28;;;;;;;;;;;;;;;;;;5055616;28;20444;-61
2023/08/31 01:16:54;;;;;;;;;;;;;;;;;;5056072;28;19925;-61
2023/08/31 01:19:20;;;;;;;;;;;;;;;;;;5063434;28;20612;-62
2023/08/31 01:21:46;;;;;;;;;;;;;;;;;;5056315;28;19989;-61
2023/08/31 01:24:13;;;;;;;;;;;;;;;;;;5054389;28;19928;-61
2023/08/31 01:26:39;;;;;;;;;;;;;;;;;;5060014;28;19952;-61
2023/08/31 01:29:04;;;;;;;;;;;;;;;;;;5054413;28;19920;-61
2023/08/31 01:31:30;;;;;;;;;;;;;;;;;;5014910;28;19935;-61
2023/08/31 01:33:56;;;;;;;;;;;;;;;;;;5053945;28;19928;-61
2023/08/31 01:36:22;;;;;;;;;;;;;;;;;;5051094;28;20366;-61
2023/08/31 01:38:48;;;;;;;;;;;;;;;;;;5052570;28;19999;-61
2023/08/31 01:41:14;;;;;;;;;;;;;;;;;;5051005;28;20370;-61
2023/08/31 01:43:40;;;;;;;;;;;;;;;;;;5051865;28;19932;-61
2023/08/31 01:46:06;;;;;;;;;;;;;;;;;;5058022;28;20461;-62
2023/08/31 01:48:32;;;;;;;;;;;;;;;;;;5051734;28;19921;-62
2023/08/31 01:51:01;;;;;;;;;;;;;;;;;;5032852;28;19928;-61
2023/08/31 01:53:27;;;;;;;;;;;;;;;;;;5050500;28;19920;-62
2023/08/31 01:55:52;;;;;;;;;;;;;;;;;;5052366;28;20388;-62
2023/08/31 01:58:18;;;;;;;;;;;;;;;;;;5062920;28;19924;-61
2023/08/31 02:00:44;;;;;;;;;;;;;;;;;;5052151;28;20271;-61
2023/08/31 02:03:11;;;;;;;;;;;;;;;;;;5060465;28;19973;-62
2023/08/31 02:05:36;;;;;;;;;;;;;;;;;;5053588;28;19940;-62
2023/08/31 02:08:02;;;;;;;;;;;;;;;;;;5071224;28;19920;-62
2023/08/31 02:10:29;;;;;;;;;;;;;;;;;;5053850;28;22497;-62
2023/08/31 02:12:55;;;;;;;;;;;;;;;;;;5056908;28;20351;-61
2023/08/31 02:15:21;;;;;;;;;;;;;;;;;;5050152;28;20011;-61
2023/08/31 02:17:47;;;;;;;;;;;;;;;;;;5034949;28;19948;-61
2023/08/31 02:20:14;;;;;;;;;;;;;;;;;;5044945;28;19971;-61
2023/08/31 02:22:39;;;;;;;;;;;;;;;;;;5053171;28;20437;-61
2023/08/31 02:25:05;;;;;;;;;;;;;;;;;;5057336;28;20008;-61
2023/08/31 02:27:31;;;;;;;;;;;;;;;;;;5052017;28;19931;-61
2023/08/31 02:29:57;;;;;;;;;;;;;;;;;;5056085;28;19920;-62
2023/08/31 02:32:23;;;;;;;;;;;;;;;;;;5053137;28;19983;-62
2023/08/31 02:34:49;;;;;;;;;;;;;;;;;;5043163;28;19927;-62
2023/08/31 02:37:15;;;;;;;;;;;;;;;;;;5034665;28;20364;-62
2023/08/31 02:39:41;;;;;;;;;;;;;;;;;;5039521;28;19929;-62
2023/08/31 02:42:07;;;;;;;;;;;;;;;;;;5051126;28;20330;-62
2023/08/31 02:44:33;;;;;;;;;;;;;;;;;;5073422;28;20019;-62
2023/08/31 02:46:59;;;;;;;;;;;;;;;;;;5053929;28;20003;-61
2023/08/31 02:49:25;;;;;;;;;;;;;;;;;;5056717;28;20393;-61
2023/08/31 02:51:51;;;;;;;;;;;;;;;;;;5056949;28;19925;-61
2023/08/31 02:54:17;;;;;;;;;;;;;;;;;;5057872;28;19924;-61
2023/08/31 02:56:43;;;;;;;;;;;;;;;;;;5031049;28;20489;-62
2023/08/31 02:59:09;;;;;;;;;;;;;;;;;;5053686;28;19928;-62
2023/08/31 03:01:35;;;;;;;;;;;;;;;;;;5051138;28;19921;-61
2023/08/31 03:04:00;;;;;;;;;;;;;;;;;;5051624;28;19964;-62
2023/08/31 03:06:26;;;;;;;;;;;;;;;;;;5060797;28;19931;-61
2023/08/31 03:08:52;;;;;;;;;;;;;;;;;;5050212;28;19956;-62
2023/08/31 03:11:18;;;;;;;;;;;;;;;;;;5064246;28;20477;-62
2023/08/31 03:13:44;;;;;;;;;;;;;;;;;;5050158;28;19929;-62
2023/08/31 03:16:10;;;;;;;;;;;;;;;;;;5046206;28;20307;-62
2023/08/31 03:18:36;;;;;;;;;;;;;;;;;;5053230;28;19927;-62
2023/08/31 03:21:02;;;;;;;;;;;;;;;;;;5056690;28;19921;-62
2023/08/31 03:23:28;;;;;;;;;;;;;;;;;;5056661;28;19931;-62
2023/08/31 03:25:54;;;;;;;;;;;;;;;;;;5052206;28;20350;-62
2023/08/31 03:28:20;;;;;;;;;;;;;;;;;;5051748;28;19925;-62
2023/08/31 03:30:46;;;;;;;;;;;;;;;;;;5016378;28;19932;-62
2023/08/31 03:33:15;;;;;;;;;;;;;;;;;;5057904;28;19925;-62
2023/08/31 03:35:40;;;;;;;;;;;;;;;;;;5049762;28;19983;-62
2023/08/31 03:38:06;;;;;;;;;;;;;;;;;;5057406;28;20351;-62
2023/08/31 03:40:32;;;;;;;;;;;;;;;;;;5049602;28;19925;-62
2023/08/31 03:42:58;;;;;;;;;;;;;;;;;;5046268;28;19925;-62
2023/08/31 03:45:24;;;;;;;;;;;;;;;;;;5053735;28;19975;-62
2023/08/31 03:47:50;;;;;;;;;;;;;;;;;;5051554;28;19962;-62
2023/08/31 03:50:16;;;;;;;;;;;;;;;;;;5028544;28;19977;-62
2023/08/31 03:52:42;;;;;;;;;;;;;;;;;;5051178;28;20350;-62
2023/08/31 03:55:07;;;;;;;;;;;;;;;;;;5031966;28;19925;-62
2023/08/31 03:57:33;;;;;;;;;;;;;;;;;;5051559;28;20243;-62
2023/08/31 03:59:59;;;;;;;;;;;;;;;;;;5057547;28;19921;-62
2023/08/31 04:02:25;;;;;;;;;;;;;;;;;;5039693;28;19964;-62
2023/08/31 04:04:51;;;;;;;;;;;;;;;;;;5034035;28;19925;-62
2023/08/31 04:07:17;;;;;;;;;;;;;;;;;;5051576;28;19983;-62
2023/08/31 04:09:43;;;;;;;;;;;;;;;;;;5052415;28;19928;-62
2023/08/31 04:12:09;;;;;;;;;;;;;;;;;;5048091;28;20419;-61
2023/08/31 04:14:35;;;;;;;;;;;;;;;;;;5050226;28;19929;-62
2023/08/31 04:17:01;;;;;;;;;;;;;;;;;;5048063;28;20007;-62
2023/08/31 04:19:27;;;;;;;;;;;;;;;;;;5051610;28;19999;-62
2023/08/31 04:21:53;;;;;;;;;;;;;;;;;;5048457;28;20362;-62
2023/08/31 04:24:18;;;;;;;;;;;;;;;;;;5052311;28;19931;-62
2023/08/31 04:26:45;;;;;;;;;;;;;;;;;;5055733;28;19921;-61
2023/08/31 04:29:10;;;;;;;;;;;;;;;;;;5050587;28;19931;-61
2023/08/31 04:31:37;;;;;;;;;;;;;;;;;;5058099;28;19929;-61
2023/08/31 04:34:04;;;;;;;;;;;;;;;;;;5052920;28;19966;-61
2023/08/31 04:36:30;;;;;;;;;;;;;;;;;;5050914;28;19933;-61
2023/08/31 04:38:56;;;;;;;;;;;;;;;;;;5049374;28;20477;-61
2023/08/31 04:41:21;;;;;;;;;;;;;;;;;;5050888;28;19925;-61
2023/08/31 04:43:47;;;;;;;;;;;;;;;;;;5059936;28;19920;-61
2023/08/31 04:46:13;;;;;;;;;;;;;;;;;;5032457;28;19963;-61
2023/08/31 04:48:39;;;;;;;;;;;;;;;;;;5058091;28;19960;-61
2023/08/31 04:51:05;;;;;;;;;;;;;;;;;;5049525;28;19931;-61
2023/08/31 04:53:31;;;;;;;;;;;;;;;;;;5048746;28;19936;-61
2023/08/31 04:55:57;;;;;;;;;;;;;;;;;;5049863;28;19979;-61
2023/08/31 04:58:23;;;;;;;;;;;;;;;;;;5036493;28;20457;-62
2023/08/31 05:00:49;;;;;;;;;;;;;;;;;;5049190;28;19920;-61
2023/08/31 05:03:15;;;;;;;;;;;;;;;;;;5049983;28;20379;-61
2023/08/31 05:05:44;;;;;;;;;;;;;;;;;;5054564;28;19929;-62
2023/08/31 05:08:09;;;;;;;;;;;;;;;;;;5050741;28;20396;-62
2023/08/31 05:10:35;;;;;;;;;;;;;;;;;;5039028;28;19940;-61
2023/08/31 05:13:01;;;;;;;;;;;;;;;;;;5048808;28;19927;-62
2023/08/31 05:15:28;;;;;;;;;;;;;;;;;;5056455;28;19948;-61
2023/08/31 05:17:54;;;;;;;;;;;;;;;;;;5048138;28;19920;-61
2023/08/31 05:20:22;;;;;;;;;;;;;;;;;;5058237;28;19925;-61
2023/08/31 05:22:48;;;;;;;;;;;;;;;;;;5047890;28;20008;-62
2023/08/31 05:25:14;;;;;;;;;;;;;;;;;;5050445;28;20557;-61
2023/08/31 05:27:40;;;;;;;;;;;;;;;;;;5050025;28;19935;-62
2023/08/31 05:30:06;;;;;;;;;;;;;;;;;;5049388;28;19983;-62
2023/08/31 05:32:31;;;;;;;;;;;;;;;;;;5050427;28;19925;-62
2023/08/31 05:34:59;;;;;;;;;;;;;;;;;;5049859;28;20412;-61
2023/08/31 05:37:25;;;;;;;;;;;;;;;;;;5048210;28;19921;-62
2023/08/31 05:39:51;;;;;;;;;;;;;;;;;;5048283;28;19935;-62
2023/08/31 05:42:17;;;;;;;;;;;;;;;;;;5054679;28;19925;-61
2023/08/31 05:44:43;;;;;;;;;;;;;;;;;;5046233;28;19921;-61
2023/08/31 05:47:09;;;;;;;;;;;;;;;;;;5048334;28;19921;-62
2023/08/31 05:49:35;;;;;;;;;;;;;;;;;;5030449;28;19929;-62
2023/08/31 05:52:01;;;;;;;;;;;;;;;;;;5056919;28;19925;-62
2023/08/31 05:54:27;;;;;;;;;;;;;;;;;;5034732;28;20003;-62
2023/08/31 05:56:53;;;;;;;;;;;;;;;;;;5054854;28;19925;-62
2023/08/31 05:59:19;;;;;;;;;;;;;;;;;;5054812;28;19932;-62
2023/08/31 06:01:45;;;;;;;;;;;;;;;;;;5049346;28;19966;-62
2023/08/31 06:04:11;;;;;;;;;;;;;;;;;;5035635;28;19925;-62
2023/08/31 06:06:37;;;;;;;;;;;;;;;;;;5066754;28;19924;-62
2023/08/31 06:09:03;;;;;;;;;;;;;;;;;;5051468;28;19929;-62
2023/08/31 06:11:29;;;;;;;;;;;;;;;;;;5070669;28;20380;-62
2023/08/31 06:13:55;;;;;;;;;;;;;;;;;;5066552;28;19975;-62
2023/08/31 06:16:21;;;;;;;;;;;;;;;;;;5053825;28;19924;-62
2023/08/31 06:18:47;;;;;;;;;;;;;;;;;;5054586;28;19951;-62
2023/08/31 06:21:13;;;;;;;;;;;;;;;;;;5064075;28;19966;-62
2023/08/31 06:23:38;;;;;;;;;;;;;;;;;;5059509;28;20047;-62
2023/08/31 06:26:04;;;;;;;;;;;;;;;;;;5053602;28;19925;-62
2023/08/31 06:28:30;;;;;;;;;;;;;;;;;;5054504;28;19925;-62
2023/08/31 06:30:56;;;;;;;;;;;;;;;;;;5073467;28;19924;-62
2023/08/31 06:33:22;;;;;;;;;;;;;;;;;;5065836;28;19974;-62
2023/08/31 06:35:51;;;;;;;;;;;;;;;;;;5062404;28;20356;-62
2023/08/31 06:38:17;;;;;;;;;;;;;;;;;;5050341;28;19940;-62
2023/08/31 06:40:45;;;;;;;;;;;;;;;;;;5052418;28;20277;-62
2023/08/31 06:43:12;;;;;;;;;;;;;;;;;;5057321;28;19921;-62
2023/08/31 06:45:38;;;;;;;;;;;;;;;;;;5056151;28;19931;-62
2023/08/31 06:48:04;;;;;;;;;;;;;;;;;;5071177;28;19921;-62
2023/08/31 06:50:30;;;;;;;;;;;;;;;;;;5040268;28;19924;-62
2023/08/31 06:52:56;;;;;;;;;;;;;;;;;;5047263;28;20367;-62
2023/08/31 06:55:22;;;;;;;;;;;;;;;;;;5043428;28;20015;-62
2023/08/31 06:57:48;;;;;;;;;;;;;;;;;;5053414;28;20019;-62
2023/08/31 07:00:14;;;;;;;;;;;;;;;;;;5051255;28;20039;-62
2023/08/31 07:02:41;;;;;;;;;;;;;;;;;;5052078;28;20449;-62
2023/08/31 07:05:07;;;;;;;;;;;;;;;;;;5062821;28;19966;-62
2023/08/31 07:07:32;;;;;;;;;;;;;;;;;;5067841;28;19960;-62
2023/08/31 07:10:00;;;;;;;;;;;;;;;;;;5053865;28;21278;-62
2023/08/31 07:12:26;;;;;;;;;;;;;;;;;;5062748;28;19930;-62
2023/08/31 07:14:52;;;;;;;;;;;;;;;;;;5063647;28;19924;-62
2023/08/31 07:17:18;;;;;;;;;;;;;;;;;;5043468;28;19947;-62
2023/08/31 07:19:44;;;;;;;;;;;;;;;;;;5051361;28;20596;-62
2023/08/31 07:22:10;;;;;;;;;;;;;;;;;;5058458;28;19929;-62
2023/08/31 07:24:36;;;;;;;;;;;;;;;;;;5033847;28;19921;-64
2023/08/31 07:27:02;;;;;;;;;;;;;;;;;;5049918;28;20008;-62
2023/08/31 07:29:28;;;;;;;;;;;;;;;;;;5052832;28;19928;-62
2023/08/31 07:31:54;;;;;;;;;;;;;;;;;;5054374;28;19925;-62
2023/08/31 07:34:20;;;;;;;;;;;;;;;;;;5056008;28;19982;-62
2023/08/31 07:36:46;;;;;;;;;;;;;;;;;;5037547;28;19921;-62
2023/08/31 07:39:12;;;;;;;;;;;;;;;;;;5057047;28;19998;-62
2023/08/31 07:41:38;;;;;;;;;;;;;;;;;;5052055;28;20367;-62
2023/08/31 07:44:04;;;;;;;;;;;;;;;;;;5049124;28;19921;-62
2023/08/31 07:46:30;;;;;;;;;;;;;;;;;;5050812;28;20019;-62
2023/08/31 07:48:56;;;;;;;;;;;;;;;;;;5050506;28;20007;-62
2023/08/31 07:51:23;;;;;;;;;;;;;;;;;;5051066;28;19921;-62
2023/08/31 07:53:49;;;;;;;;;;;;;;;;;;5062370;28;19973;-62
2023/08/31 07:56:15;;;;;;;;;;;;;;;;;;5047068;28;20255;-62
2023/08/31 07:58:40;;;;;;;;;;;;;;;;;;5012682;28;19932;-62
2023/08/31 08:01:06;;;;;;;;;;;;;;;;;;5031241;28;19959;-62
2023/08/31 08:03:32;;;;;;;;;;;;;;;;;;5051334;28;20386;-62
2023/08/31 08:05:58;;;;;;;;;;;;;;;;;;5050288;28;19983;-62
2023/08/31 08:08:24;;;;;;;;;;;;;;;;;;5048821;28;19925;-62
2023/08/31 08:10:50;;;;;;;;;;;;;;;;;;5055022;28;20298;-62
2023/08/31 08:13:17;;;;;;;;;;;;;;;;;;5051361;28;19928;-62
2023/08/31 08:15:43;;;;;;;;;;;;;;;;;;5049489;28;19921;-62
2023/08/31 08:18:09;;;;;;;;;;;;;;;;;;5050278;28;20370;-62
2023/08/31 08:20:35;;;;;;;;;;;;;;;;;;5049890;28;19932;-62
2023/08/31 08:23:01;;;;;;;;;;;;;;;;;;5051767;28;19931;-62
2023/08/31 08:25:27;;;;;;;;;;;;;;;;;;5054451;28;20018;-62
2023/08/31 08:27:52;;;;;;;;;;;;;;;;;;5046386;28;20098;-62
2023/08/31 08:30:19;;;;;;;;;;;;;;;;;;5050917;28;19925;-62
2023/08/31 08:32:45;;;;;;;;;;;;;;;;;;5024227;28;19921;-62
2023/08/31 08:35:11;;;;;;;;;;;;;;;;;;5048579;28;19931;-62
2023/08/31 08:37:37;;;;;;;;;;;;;;;;;;5049752;28;19982;-62
2023/08/31 08:40:04;;;;;;;;;;;;;;;;;;5049411;28;20339;-62
2023/08/31 08:42:29;;;;;;;;;;;;;;;;;;5050884;28;19952;-62
2023/08/31 08:44:55;;;;;;;;;;;;;;;;;;5050725;28;20578;-62
2023/08/31 08:47:21;;;;;;;;;;;;;;;;;;5051474;28;20369;-62
2023/08/31 08:49:47;;;;;;;;;;;;;;;;;;5019373;28;19929;-62
2023/08/31 08:52:13;;;;;;;;;;;;;;;;;;5049414;22;19921;-63
2023/08/31 08:54:39;;;;;;;;;;;;;;;;;;5075671;28;20039;-64
2023/08/31 08:57:05;;;;;;;;;;;;;;;;;;5065732;28;20002;-64
2023/08/31 08:59:31;;;;;;;;;;;;;;;;;;5071866;28;19924;-64
2023/08/31 09:01:57;;;;;;;;;;;;;;;;;;5080388;28;20026;-64
2023/08/31 09:04:23;;;;;;;;;;;;;;;;;;5069979;28;19925;-64
2023/08/31 09:06:49;;;;;;;;;;;;;;;;;;5061867;28;19946;-64
2023/08/31 09:09:16;;;;;;;;;;;;;;;;;;5072039;28;19924;-64
2023/08/31 09:11:42;;;;;;;;;;;;;;;;;;5072703;28;19950;-64
2023/08/31 09:14:08;;;;;;;;;;;;;;;;;;5070848;28;19924;-64
2023/08/31 09:16:34;;;;;;;;;;;;;;;;;;5070040;28;20003;-64
2023/08/31 09:19:00;;;;;;;;;;;;;;;;;;5070640;28;19925;-64
2023/08/31 09:21:26;;;;;;;;;;;;;;;;;;5068115;28;19928;-64
2023/08/31 09:23:52;;;;;;;;;;;;;;;;;;5068525;28;19920;-64
2023/08/31 09:26:18;;;;;;;;;;;;;;;;;;5068626;28;20007;-64
2023/08/31 09:28:45;;;;;;;;;;;;;;;;;;5074497;28;19924;-64
2023/08/31 09:31:11;;;;;;;;;;;;;;;;;;5073506;28;20273;-64
2023/08/31 09:33:37;;;;;;;;;;;;;;;;;;5072654;28;19921;-63
2023/08/31 09:36:04;;;;;;;;;;;;;;;;;;5074229;28;19927;-63
2023/08/31 09:38:29;;;;;;;;;;;;;;;;;;5074149;28;19927;-63
2023/08/31 09:40:55;;;;;;;;;;;;;;;;;;5073193;28;19924;-64
2023/08/31 09:43:21;;;;;;;;;;;;;;;;;;5071180;28;19971;-64
2023/08/31 09:45:47;;;;;;;;;;;;;;;;;;5033575;28;20389;-64
2023/08/31 09:48:13;;;;;;;;;;;;;;;;;;5068832;28;19924;-64
2023/08/31 09:50:39;;;;;;;;;;;;;;;;;;5061311;28;20366;-64
2023/08/31 09:53:05;;;;;;;;;;;;;;;;;;5072066;28;19928;-64
2023/08/31 09:55:31;;;;;;;;;;;;;;;;;;5071913;28;19929;-64
2023/08/31 09:57:57;;;;;;;;;;;;;;;;;;5051867;28;19929;-64
2023/08/31 10:00:23;;;;;;;;;;;;;;;;;;5072610;28;19926;-64
2023/08/31 10:02:49;;;;;;;;;;;;;;;;;;5072362;28;20328;-64
2023/08/31 10:05:15;;;;;;;;;;;;;;;;;;5071248;28;19931;-65
2023/08/31 10:07:41;;;;;;;;;;;;;;;;;;5069984;28;19990;-65
2023/08/31 10:10:07;;;;;;;;;;;;;;;;;;5072452;28;19920;-65
2023/08/31 10:12:33;;;;;;;;;;;;;;;;;;5072176;28;20390;-65
2023/08/31 10:14:59;;;;;;;;;;;;;;;;;;5073897;28;19924;-65
2023/08/31 10:17:25;;;;;;;;;;;;;;;;;;5070160;28;19974;-64
2023/08/31 10:19:51;;;;;;;;;;;;;;;;;;5070665;28;19924;-64
2023/08/31 10:22:17;;;;;;;;;;;;;;;;;;5068341;28;20018;-64
2023/08/31 10:24:43;;;;;;;;;;;;;;;;;;5072838;28;19924;-64
2023/08/31 10:27:09;;;;;;;;;;;;;;;;;;5071450;28;20304;-64
2023/08/31 10:29:35;;;;;;;;;;;;;;;;;;5072698;28;19928;-63
2023/08/31 10:32:02;;;;;;;;;;;;;;;;;;5044986;28;20418;-64
2023/08/31 10:34:28;;;;;;;;;;;;;;;;;;5055462;28;19931;-64
2023/08/31 10:36:54;;;;;;;;;;;;;;;;;;5042615;28;19921;-64
2023/08/31 10:39:20;;;;;;;;;;;;;;;;;;5049429;28;20010;-62
2023/08/31 10:41:46;;;;;;;;;;;;;;;;;;5072595;28;19929;-62
2023/08/31 10:44:11;;;;;;;;;;;;;;;;;;5065223;28;19929;-62
2023/08/31 10:46:38;;;;;;;;;;;;;;;;;;5072245;28;19920;-63
2023/08/31 10:49:04;;;;;;;;;;;;;;;;;;5069099;28;19924;-63
2023/08/31 10:51:30;;;;;;;;;;;;;;;;;;5045445;28;20066;-63
2023/08/31 10:53:56;;;;;;;;;;;;;;;;;;5070853;28;19943;-64
2023/08/31 10:56:22;;;;;;;;;;;;;;;;;;5063101;28;19955;-63
2023/08/31 10:58:48;;;;;;;;;;;;;;;;;;5076237;28;20405;-63
2023/08/31 11:01:14;;;;;;;;;;;;;;;;;;5080284;28;19961;-63
2023/08/31 11:03:40;;;;;;;;;;;;;;;;;;5082939;28;20392;-63
2023/08/31 11:06:06;;;;;;;;;;;;;;;;;;5067996;28;19920;-63
2023/08/31 11:08:31;;;;;;;;;;;;;;;;;;5060527;28;19921;-64
2023/08/31 11:10:57;;;;;;;;;;;;;;;;;;5067613;28;20023;-64
2023/08/31 11:13:23;;;;;;;;;;;;;;;;;;5068808;28;19928;-64
2023/08/31 11:15:49;;;;;;;;;;;;;;;;;;5038661;28;19929;-64
2023/08/31 11:18:17;;;;;;;;;;;;;;;;;;5065200;28;19966;-66
2023/08/31 11:20:43;;;;;;;;;;;;;;;;;;5073279;28;19924;-67
2023/08/31 11:23:09;;;;;;;;;;;;;;;;;;5061076;28;19920;-67
2023/08/31 11:25:35;;;;;;;;;;;;;;;;;;5064391;28;19927;-67
2023/08/31 11:28:01;;;;;;;;;;;;;;;;;;5067422;28;20403;-68
2023/08/31 11:30:27;;;;;;;;;;;;;;;;;;5068580;28;19942;-67
2023/08/31 11:32:52;;;;;;;;;;;;;;;;;;5068104;28;19921;-67
2023/08/31 11:35:18;;;;;;;;;;;;;;;;;;5053404;28;19928;-67
2023/08/31 11:37:45;;;;;;;;;;;;;;;;;;5066773;28;19939;-66
2023/08/31 11:40:11;;;;;;;;;;;;;;;;;;5069595;28;20429;-66
2023/08/31 11:42:37;;;;;;;;;;;;;;;;;;5066728;28;20011;-64
2023/08/31 11:45:04;;;;;;;;;;;;;;;;;;5069709;28;19942;-64
2023/08/31 11:47:30;;;;;;;;;;;;;;;;;;5070475;28;20396;-64
2023/08/31 11:49:56;;;;;;;;;;;;;;;;;;5052032;28;19924;-63
2023/08/31 11:52:22;;;;;;;;;;;;;;;;;;5070225;28;19971;-63
2023/08/31 11:54:48;;;;;;;;;;;;;;;;;;5071325;28;19932;-64
2023/08/31 11:57:15;;;;;;;;;;;;;;;;;;5046760;28;19924;-63
2023/08/31 11:59:41;;;;;;;;;;;;;;;;;;5071793;28;19924;-64
2023/08/31 12:02:07;;;;;;;;;;;;;;;;;;5068915;28;19928;-64
2023/08/31 12:04:33;;;;;;;;;;;;;;;;;;5071246;28;19928;-64
2023/08/31 12:06:59;;;;;;;;;;;;;;;;;;5056196;28;19927;-65
2023/08/31 12:09:25;;;;;;;;;;;;;;;;;;5070249;28;19927;-64
2023/08/31 12:11:51;;;;;;;;;;;;;;;;;;5069617;28;20265;-64
2023/08/31 12:14:17;;;;;;;;;;;;;;;;;;5069177;28;19958;-64
2023/08/31 12:16:43;;;;;;;;;;;;;;;;;;5053149;28;19928;-64
2023/08/31 12:19:09;;;;;;;;;;;;;;;;;;5064673;28;19920;-64
2023/08/31 12:21:35;;;;;;;;;;;;;;;;;;5068808;28;19920;-64
2023/08/31 12:24:02;;;;;;;;;;;;;;;;;;5066747;28;19920;-64
2023/08/31 12:26:28;;;;;;;;;;;;;;;;;;5072362;28;20349;-64
2023/08/31 12:28:54;;;;;;;;;;;;;;;;;;5070806;28;20053;-63
2023/08/31 12:31:20;;;;;;;;;;;;;;;;;;5054446;28;19928;-64
2023/08/31 12:33:47;;;;;;;;;;;;;;;;;;5053598;28;19920;-64
2023/08/31 12:36:13;;;;;;;;;;;;;;;;;;5070684;28;19924;-64
2023/08/31 12:38:39;;;;;;;;;;;;;;;;;;5061744;28;19925;-63
2023/08/31 12:41:05;;;;;;;;;;;;;;;;;;5052425;28;20023;-63
2023/08/31 12:43:31;;;;;;;;;;;;;;;;;;5081322;28;19928;-63
2023/08/31 12:45:57;;;;;;;;;;;;;;;;;;5059057;28;20417;-63
2023/08/31 12:48:23;;;;;;;;;;;;;;;;;;5070540;28;19920;-63
2023/08/31 12:50:49;;;;;;;;;;;;;;;;;;5070645;28;19959;-65
2023/08/31 12:53:14;;;;;;;;;;;;;;;;;;5048699;28;19924;-64
2023/08/31 12:55:40;;;;;;;;;;;;;;;;;;5071296;28;19936;-64
2023/08/31 12:58:06;;;;;;;;;;;;;;;;;;5070624;28;20427;-64
2023/08/31 13:00:33;;;;;;;;;;;;;;;;;;5070314;28;19920;-63
2023/08/31 13:03:00;;;;;;;;;;;;;;;;;;5066536;28;19934;-64
2023/08/31 13:05:27;;;;;;;;;;;;;;;;;;5073980;28;19924;-64
2023/08/31 13:07:53;;;;;;;;;;;;;;;;;;5052824;28;19924;-64
2023/08/31 13:10:19;;;;;;;;;;;;;;;;;;5070347;28;19927;-64
2023/08/31 13:12:45;;;;;;;;;;;;;;;;;;5068234;28;19928;-64
2023/08/31 13:15:11;;;;;;;;;;;;;;;;;;5073645;28;20314;-64
2023/08/31 13:17:37;;;;;;;;;;;;;;;;;;5069327;28;20397;-64
2023/08/31 13:20:04;;;;;;;;;;;;;;;;;;5069192;28;19925;-63
2023/08/31 13:22:29;;;;;;;;;;;;;;;;;;5065257;28;19963;-63
2023/08/31 13:24:56;;;;;;;;;;;;;;;;;;5071972;28;20942;-64
2023/08/31 13:27:22;;;;;;;;;;;;;;;;;;5084245;28;20301;-64
2023/08/31 13:29:48;;;;;;;;;;;;;;;;;;5073266;28;19999;-64
2023/08/31 13:32:14;;;;;;;;;;;;;;;;;;5075244;28;19931;-64
2023/08/31 13:34:40;;;;;;;;;;;;;;;;;;5073819;28;19924;-64
2023/08/31 13:37:05;;;;;;;;;;;;;;;;;;5073392;28;20015;-64
2023/08/31 13:39:31;;;;;;;;;;;;;;;;;;5057177;28;19974;-64
2023/08/31 13:41:57;;;;;;;;;;;;;;;;;;5069378;28;19927;-64
2023/08/31 13:44:23;;;;;;;;;;;;;;;;;;5074571;28;19920;-64
2023/08/31 13:46:49;;;;;;;;;;;;;;;;;;5049552;28;19978;-64
2023/08/31 13:49:15;;;;;;;;;;;;;;;;;;5062549;28;20000;-64
2023/08/31 13:51:41;;;;;;;;;;;;;;;;;;5037353;28;19932;-64
2023/08/31 13:54:07;;;;;;;;;;;;;;;;;;5062448;28;19921;-64
2023/08/31 13:56:33;;;;;;;;;;;;;;;;;;5071696;28;20305;-64
2023/08/31 13:58:59;;;;;;;;;;;;;;;;;;5054964;28;19925;-64
2023/08/31 14:01:24;;;;;;;;;;;;;;;;;;5069252;28;19920;-64
2023/08/31 14:03:50;;;;;;;;;;;;;;;;;;5072910;28;20008;-64
2023/08/31 14:06:16;;;;;;;;;;;;;;;;;;5069529;28;19981;-64
2023/08/31 14:08:42;;;;;;;;;;;;;;;;;;5062062;28;19952;-64
2023/08/31 14:11:08;;;;;;;;;;;;;;;;;;5051056;28;19970;-64
2023/08/31 14:13:34;;;;;;;;;;;;;;;;;;5056218;28;20413;-64
2023/08/31 14:16:00;;;;;;;;;;;;;;;;;;5052320;28;19963;-64
2023/08/31 14:18:28;;;;;;;;;;;;;;;;;;5072194;28;20023;-64
2023/08/31 14:20:54;;;;;;;;;;;;;;;;;;5070724;28;19924;-64
2023/08/31 14:23:20;;;;;;;;;;;;;;;;;;5072728;28;20003;-64
2023/08/31 14:25:46;;;;;;;;;;;;;;;;;;5072008;28;20596;-63
2023/08/31 14:28:12;;;;;;;;;;;;;;;;;;5071755;28;19978;-63
2023/08/31 14:30:37;;;;;;;;;;;;;;;;;;5074262;28;19932;-63
2023/08/31 14:33:03;;;;;;;;;;;;;;;;;;5071533;28;20412;-63
2023/08/31 14:35:30;;;;;;;;;;;;;;;;;;5055992;28;19950;-64
2023/08/31 14:37:56;;;;;;;;;;;;;;;;;;5072175;28;19924;-64
2023/08/31 14:40:22;;;;;;;;;;;;;;;;;;5072299;28;19973;-64
2023/08/31 14:42:47;;;;;;;;;;;;;;;;;;5073618;28;20337;-64
2023/08/31 14:45:14;;;;;;;;;;;;;;;;;;5070976;28;19941;-64
2023/08/31 14:47:39;;;;;;;;;;;;;;;;;;5073032;28;20301;-63
2023/08/31 14:50:05;;;;;;;;;;;;;;;;;;5071960;28;19928;-63
2023/08/31 14:52:31;;;;;;;;;;;;;;;;;;5072694;28;19958;-63
2023/08/31 14:54:57;;;;;;;;;;;;;;;;;;5071131;28;20433;-63
2023/08/31 14:57:23;;;;;;;;;;;;;;;;;;5072598;28;19931;-63
2023/08/31 14:59:53;;;;;;;;;;;;;;;;;;5070954;28;20278;-63
2023/08/31 15:02:21;;;;;;;;;;;;;;;;;;5072504;28;19955;-63
2023/08/31 15:04:47;;;;;;;;;;;;;;;;;;5067991;28;19967;-63
2023/08/31 15:07:13;;;;;;;;;;;;;;;;;;5053899;28;20382;-64
2023/08/31 15:09:39;;;;;;;;;;;;;;;;;;5067768;28;19931;-64
2023/08/31 15:12:05;;;;;;;;;;;;;;;;;;5052977;28;19974;-65
2023/08/31 15:14:30;;;;;;;;;;;;;;;;;;5066565;28;20319;-65
2023/08/31 15:16:56;;;;;;;;;;;;;;;;;;5069654;28;20381;-65
2023/08/31 15:19:22;;;;;;;;;;;;;;;;;;5050240;28;19924;-65
2023/08/31 15:21:48;;;;;;;;;;;;;;;;;;5072508;28;19920;-65
2023/08/31 15:24:14;;;;;;;;;;;;;;;;;;5051456;28;19934;-65
2023/08/31 15:26:40;;;;;;;;;;;;;;;;;;5070372;28;20397;-64
2023/08/31 15:29:06;;;;;;;;;;;;;;;;;;5069669;28;19966;-64
2023/08/31 15:31:32;;;;;;;;;;;;;;;;;;5052422;28;19967;-64
2023/08/31 15:33:58;;;;;;;;;;;;;;;;;;5066465;28;20732;-65
2023/08/31 15:36:24;;;;;;;;;;;;;;;;;;5052094;28;20393;-65
2023/08/31 15:38:50;;;;;;;;;;;;;;;;;;5053135;28;19921;-65
2023/08/31 15:41:15;;;;;;;;;;;;;;;;;;5041992;28;20467;-65
2023/08/31 15:43:42;;;;;;;;;;;;;;;;;;5067385;28;19920;-63
2023/08/31 15:46:08;;;;;;;;;;;;;;;;;;5069992;28;20540;-64
2023/08/31 15:48:34;;;;;;;;;;;;;;;;;;5065625;28;19924;-63
2023/08/31 15:51:00;;;;;;;;;;;;;;;;;;5070801;28;20019;-64
2023/08/31 15:53:27;;;;;;;;;;;;;;;;;;5068335;28;20423;-64
2023/08/31 15:55:53;;;;;;;;;;;;;;;;;;5039048;28;19931;-64
2023/08/31 15:58:20;;;;;;;;;;;;;;;;;;5055966;28;19951;-64
2023/08/31 16:00:46;;;;;;;;;;;;;;;;;;5070931;28;20069;-64
2023/08/31 16:03:12;;;;;;;;;;;;;;;;;;5071785;28;20699;-64
2023/08/31 16:05:38;;;;;;;;;;;;;;;;;;5075416;28;20051;-64
2023/08/31 16:08:04;;;;;;;;;;;;;;;;;;5069910;28;19929;-64
2023/08/31 16:10:30;;;;;;;;;;;;;;;;;;5070430;28;19924;-64
2023/08/31 16:12:55;;;;;;;;;;;;;;;;;;5065542;28;19925;-64
2023/08/31 16:15:21;;;;;;;;;;;;;;;;;;5068338;28;20336;-64
2023/08/31 16:17:47;;;;;;;;;;;;;;;;;;5053566;28;19993;-64
2023/08/31 16:20:13;;;;;;;;;;;;;;;;;;5072166;28;19978;-64
2023/08/31 16:22:39;;;;;;;;;;;;;;;;;;5071662;28;19924;-64
2023/08/31 16:25:05;;;;;;;;;;;;;;;;;;5070620;28;19927;-64
2023/08/31 16:27:31;;;;;;;;;;;;;;;;;;5070184;28;19990;-64
2023/08/31 16:29:58;;;;;;;;;;;;;;;;;;5052189;28;19920;-64
2023/08/31 16:32:24;;;;;;;;;;;;;;;;;;5065826;28;19951;-64
2023/08/31 16:34:49;;;;;;;;;;;;;;;;;;5070084;28;19956;-63
2023/08/31 16:37:15;;;;;;;;;;;;;;;;;;5070786;28;20374;-64